This is the latest recevied weather packets stored in our database for station/object K0CPM-2. If no packets are shown the sender has not sent any weather packets the latest 1 day(s).
| Time | Temp. | Humidity | Pressure | Rain* | Wind** | Luminosity | Snow |
|---|---|---|---|---|---|---|---|
| 1778049959 | 22.78° C | 92% | 1009.1 hPa | 0 mm | - | - | - |
| 1778049077 | 22.78° C | 92% | 1009.1 hPa | 0 mm | - | - | - |
| 1778048150 | 22.78° C | 92% | 1009.1 hPa | 0 mm | - | - | - |
| 1778045444 | 22.78° C | 92% | 1009.2 hPa | 0 mm | - | - | - |
| 1778043634 | 22.78° C | 92% | 1009.3 hPa | 0 mm | - | - | - |
| 1778042736 | 22.78° C | 91% | 1009.4 hPa | 0 mm | - | - | - |
| 1778041832 | 22.78° C | 91% | 1009.5 hPa | 0 mm | - | - | - |
| 1778040937 | 22.78° C | 91% | 1009.5 hPa | 0 mm | - | - | - |
| 1778040031 | 22.78° C | 91% | 1009.4 hPa | 0 mm | - | - | - |
| 1778037337 | 23.33° C | 89% | 1009.6 hPa | 0 mm | - | - | - |
| 1778035537 | 23.33° C | 88% | 1009.4 hPa | 0 mm | - | - | - |
| 1778033727 | 23.89° C | 86% | 1009.2 hPa | 0 mm | - | - | - |
| 1778031927 | 23.89° C | 85% | 1008.9 hPa | 0 mm | - | - | - |
| 1778031029 | 23.89° C | 85% | 1008.9 hPa | 0 mm | - | - | - |
| 1778030155 | 24.44° C | 84% | 1008.9 hPa | 0 mm | - | - | - |
| 1778029224 | 24.44° C | 83% | 1008.9 hPa | 0 mm | - | - | - |
| 1778027423 | 25° C | 81% | 1009 hPa | 0 mm | - | - | - |
| 1778026522 | 25° C | 79% | 1008.9 hPa | 0 mm | - | - | - |
| 1778013911 | 28.89° C | 67% | 1009.3 hPa | 0 mm | - | - | - |
| 1778013011 | 28.89° C | 67% | 1009.2 hPa | 0 mm | - | - | - |
| 1778012110 | 28.33° C | 68% | 1009.3 hPa | 0 mm | - | - | - |
| 1778010309 | 28.89° C | 65% | 1009.3 hPa | 0 mm | - | - | - |
* Rain latest hour (hover to see other rain measurements)
** Current wind speed in m/s (hover to see current wind gust speed)